Time;durP1;ratioP1;P1;durP2;ratioP2;P2;SDS_P1;SDS_P2;PMS_P1;PMS_P2;Temp;Humidity;BMP_temperature;BMP_pressure;BME280_temperature;BME280_humidity;BME280_pressure;Samples;Min_cycle;Max_cycle;Signal;HPM_P1;HPM_P2
2021/03/18 00:00:49;;;;;;;8.82;7.25;;;;;;;1.60;77.41;95758.75;5029810;28;20671;-69
2021/03/18 00:03:15;;;;;;;8.88;7.28;;;;;;;2.00;76.37;95750.84;5014813;28;20128;-70
2021/03/18 00:05:42;;;;;;;9.23;7.43;;;;;;;1.81;76.85;95744.19;5020061;28;20504;-70
2021/03/18 00:08:07;;;;;;;11.93;7.32;;;;;;;1.58;76.75;95752.91;5027686;28;20034;-69
2021/03/18 00:10:32;;;;;;;13.90;7.00;;;;;;;1.11;78.37;95744.34;5029277;28;20026;-69
2021/03/18 00:12:59;;;;;;;10.60;7.80;;;;;;;1.65;77.47;95747.56;5031221;28;20464;-70
2021/03/18 00:15:24;;;;;;;11.68;7.97;;;;;;;1.87;76.56;95753.75;5029434;28;20049;-69
2021/03/18 00:17:50;;;;;;;10.07;8.05;;;;;;;1.46;77.18;95739.03;5029114;28;20757;-68
2021/03/18 00:20:16;;;;;;;9.15;8.10;;;;;;;1.50;77.46;95748.06;5029576;28;20073;-68
2021/03/18 00:22:43;;;;;;;12.75;8.68;;;;;;;1.42;78.34;95749.19;5029206;28;20104;-69
2021/03/18 00:25:11;;;;;;;9.07;8.27;;;;;;;1.68;77.47;95747.06;5030055;28;20464;-68
2021/03/18 00:27:37;;;;;;;11.82;8.27;;;;;;;1.80;77.03;95747.84;5029083;28;20038;-69
2021/03/18 00:30:04;;;;;;;9.45;8.15;;;;;;;1.85;76.67;95736.66;5029331;28;20037;-69
2021/03/18 00:32:29;;;;;;;12.05;8.30;;;;;;;2.01;75.96;95751.66;5029009;28;20036;-69
2021/03/18 00:34:54;;;;;;;10.88;8.55;;;;;;;1.62;76.24;95746.19;5029243;28;20041;-69
2021/03/18 00:37:20;;;;;;;9.93;8.82;;;;;;;1.81;76.68;95731.09;5030935;28;20485;-69
2021/03/18 00:39:45;;;;;;;8.90;7.22;;;;;;;1.78;75.65;95739.41;5029158;28;20045;-69
2021/03/18 00:42:11;;;;;;;12.60;9.07;;;;;;;2.00;75.56;95743.00;5028830;28;20580;-68
2021/03/18 00:44:36;;;;;;;10.50;9.10;;;;;;;2.10;75.15;95734.50;5029078;28;20034;-69
2021/03/18 00:47:02;;;;;;;11.25;8.82;;;;;;;2.11;75.27;95728.22;5028577;28;20042;-70
2021/03/18 00:49:27;;;;;;;10.18;8.82;;;;;;;1.94;75.13;95722.91;5028964;28;20639;-60
2021/03/18 00:51:53;;;;;;;9.73;8.00;;;;;;;1.53;76.27;95726.59;5030618;28;20034;-70
2021/03/18 00:54:18;;;;;;;11.35;8.73;;;;;;;1.35;77.35;95730.19;5028857;28;20040;-69
2021/03/18 00:56:43;;;;;;;9.90;8.90;;;;;;;1.73;77.14;95729.63;5027414;28;20053;-69
2021/03/18 00:59:09;;;;;;;12.55;8.98;;;;;;;1.58;76.78;95729.31;5023258;28;20030;-70
2021/03/18 01:01:36;;;;;;;9.93;8.93;;;;;;;1.01;78.83;95722.13;5008835;28;20034;-70
2021/03/18 01:04:01;;;;;;;11.45;8.45;;;;;;;1.12;78.30;95711.88;5010967;28;20092;-69
2021/03/18 01:06:29;;;;;;;12.07;9.45;;;;;;;1.49;77.84;95715.78;5009110;28;20050;-68
2021/03/18 01:08:56;;;;;;;11.98;8.98;;;;;;;1.49;77.63;95721.03;5008743;28;20558;-69
2021/03/18 01:11:25;;;;;;;11.75;9.38;;;;;;;1.63;77.24;95726.78;5016309;28;20656;-69
2021/03/18 01:13:55;;;;;;;11.00;9.25;;;;;;;1.63;76.48;95728.63;5028933;28;20033;-69
2021/03/18 01:16:30;;;;;;;10.63;8.70;;;;;;;1.65;76.09;95722.13;5030750;28;20509;-69
2021/03/18 01:18:57;;;;;;;13.30;9.82;;;;;;;1.56;76.72;95721.69;5028787;28;20051;-69
2021/03/18 01:21:28;;;;;;;12.77;9.30;;;;;;;1.41;77.25;95716.16;5014696;28;20049;-68
2021/03/18 01:23:53;;;;;;;13.35;9.60;;;;;;;1.02;78.80;95723.75;5012991;28;20046;-69
2021/03/18 01:26:19;;;;;;;11.07;8.80;;;;;;;1.17;78.02;95711.97;5012934;28;20038;-69
2021/03/18 01:28:44;;;;;;;12.73;9.30;;;;;;;0.83;79.68;95719.66;5012548;28;20033;-69
2021/03/18 01:31:10;;;;;;;12.38;9.70;;;;;;;1.09;78.36;95720.19;5013383;28;20029;-69
2021/03/18 01:33:38;;;;;;;12.98;10.38;;;;;;;1.29;78.07;95712.78;5012855;28;20049;-69
2021/03/18 01:36:07;;;;;;;12.32;9.20;;;;;;;0.69;79.44;95710.41;5012899;28;20080;-69
2021/03/18 01:38:34;;;;;;;13.45;10.25;;;;;;;1.23;78.37;95724.19;5012668;28;20065;-69
2021/03/18 01:40:59;;;;;;;15.10;9.13;;;;;;;0.81;79.35;95719.06;5011486;28;20128;-68
2021/03/18 01:43:25;;;;;;;13.77;10.45;;;;;;;1.06;78.88;95712.78;5014265;28;20445;-69
2021/03/18 01:45:51;;;;;;;15.15;10.10;;;;;;;1.12;78.80;95715.28;5012769;28;20030;-70
2021/03/18 01:48:16;;;;;;;12.88;8.77;;;;;;;1.01;78.29;95722.13;5025888;28;20487;-69
2021/03/18 01:50:42;;;;;;;13.27;9.88;;;;;;;1.50;77.76;95722.63;5022147;28;20048;-68
2021/03/18 01:53:08;;;;;;;13.07;9.95;;;;;;;1.75;76.75;95722.31;5017822;28;20033;-68
2021/03/18 01:55:37;;;;;;;12.88;10.10;;;;;;;1.69;76.11;95727.69;5032165;28;20055;-71
2021/03/18 01:58:04;;;;;;;10.32;9.18;;;;;;;1.47;75.80;95730.94;5033782;28;20033;-69
2021/03/18 02:00:30;;;;;;;14.13;9.98;;;;;;;1.12;76.28;95725.75;5032154;28;20049;-69
2021/03/18 02:02:57;;;;;;;15.10;9.45;;;;;;;0.88;75.19;95730.25;5031742;28;20380;-68
2021/03/18 02:05:23;;;;;;;18.45;9.43;;;;;;;0.71;76.34;95724.88;5032071;28;20096;-70
2021/03/18 02:07:52;;;;;;;15.25;10.55;;;;;;;0.43;76.94;95717.69;5028684;28;20125;-69
2021/03/18 02:10:18;;;;;;;17.35;10.93;;;;;;;1.03;75.80;95712.25;5014132;28;20030;-68
2021/03/18 02:12:44;;;;;;;16.42;10.32;;;;;;;0.90;74.58;95701.97;5011886;28;20042;-69
2021/03/18 02:15:10;;;;;;;14.48;10.70;;;;;;;1.39;74.26;95706.94;5010834;28;20389;-72
2021/03/18 02:17:41;;;;;;;14.45;8.57;;;;;;;0.78;74.56;95714.28;5011154;28;20034;-70
2021/03/18 02:20:49;;;;;;;12.97;7.73;;;;;;;1.16;74.62;95713.81;5017324;28;20115;-68
2021/03/18 02:23:26;;;;;;;19.98;10.75;;;;;;;0.85;75.03;95714.97;5017244;28;20117;-70
2021/03/18 02:26:30;;;;;;;14.10;9.27;;;;;;;0.55;76.23;95709.84;5028286;28;20496;-69
2021/03/18 02:29:30;;;;;;;15.77;10.63;;;;;;;0.90;75.70;95709.03;5009411;28;20042;-69
2021/03/18 02:32:05;;;;;;;17.13;10.60;;;;;;;0.82;75.44;95707.59;5010747;28;20070;-69
2021/03/18 02:35:11;;;;;;;15.95;9.95;;;;;;;0.83;74.98;95705.75;5011677;28;20045;-68
2021/03/18 02:37:40;;;;;;;17.60;10.68;;;;;;;1.10;74.90;95711.31;5012767;28;20053;-68
2021/03/18 02:40:13;;;;;;;17.42;10.88;;;;;;;1.02;75.04;95717.69;5033368;28;20039;-68
2021/03/18 02:42:40;;;;;;;17.70;11.93;;;;;;;0.97;75.29;95710.53;5031132;28;20052;-68
2021/03/18 02:45:09;;;;;;;18.67;11.35;;;;;;;1.08;74.66;95729.09;5017939;28;20128;-68
2021/03/18 02:47:36;;;;;;;18.90;11.32;;;;;;;0.91;75.38;95719.28;5011100;28;20583;-69
2021/03/18 02:50:05;;;;;;;16.67;10.73;;;;;;;0.49;76.55;95722.00;5014515;28;20088;-69
2021/03/18 02:52:32;;;;;;;19.63;11.27;;;;;;;0.73;75.71;95712.34;5030979;28;20028;-68
2021/03/18 02:54:59;;;;;;;21.15;11.82;;;;;;;0.78;76.13;95715.09;5033034;28;20021;-69
2021/03/18 02:57:27;;;;;;;22.27;11.77;;;;;;;0.78;75.93;95722.16;5030718;28;20128;-69
2021/03/18 02:59:54;;;;;;;21.08;11.05;;;;;;;0.67;75.89;95715.91;5030895;28;20041;-68
2021/03/18 03:02:24;;;;;;;18.67;10.70;;;;;;;0.54;76.53;95725.78;5029178;28;20051;-69
2021/03/18 03:04:52;;;;;;;20.77;11.98;;;;;;;0.84;75.36;95725.69;5029581;28;20483;-69
2021/03/18 03:07:19;;;;;;;17.65;11.23;;;;;;;0.87;74.55;95720.78;5032581;28;20033;-68
2021/03/18 03:09:47;;;;;;;17.33;12.73;;;;;;;0.91;75.10;95713.25;5030788;28;20040;-68
2021/03/18 03:12:14;;;;;;;17.27;11.48;;;;;;;0.90;74.93;95709.84;5030377;28;20050;-68
2021/03/18 03:14:42;;;;;;;16.80;11.60;;;;;;;1.20;74.40;95729.88;5030655;28;20033;-69
2021/03/18 03:17:09;;;;;;;22.63;12.82;;;;;;;1.37;73.82;95732.56;5029070;28;20674;-69
2021/03/18 03:19:37;;;;;;;20.27;11.95;;;;;;;1.73;73.22;95723.56;5030560;28;20029;-69
2021/03/18 03:22:04;;;;;;;16.63;10.55;;;;;;;1.14;72.98;95736.03;5032118;28;20192;-69
2021/03/18 03:24:34;;;;;;;18.35;12.45;;;;;;;1.23;73.34;95724.97;5030568;28;20045;-69
2021/03/18 03:27:00;;;;;;;18.13;11.45;;;;;;;1.00;74.25;95728.41;5030372;28;20120;-69
2021/03/18 03:29:27;;;;;;;19.50;11.82;;;;;;;0.71;75.98;95730.09;5030436;28;20411;-70
2021/03/18 03:31:52;;;;;;;19.35;11.80;;;;;;;0.69;75.84;95744.47;5030222;28;20088;-71
2021/03/18 03:34:19;;;;;;;17.33;11.80;;;;;;;0.63;75.26;95751.41;5032344;28;20048;-69
2021/03/18 03:36:45;;;;;;;21.05;13.52;;;;;;;0.49;76.98;95750.00;5030322;28;20499;-69
2021/03/18 03:39:10;;;;;;;20.30;12.43;;;;;;;0.56;76.59;95755.94;5016630;28;20042;-69
2021/03/18 03:41:36;;;;;;;18.75;11.98;;;;;;;0.45;76.81;95749.66;5010406;28;20037;-68
2021/03/18 03:44:03;;;;;;;21.77;12.52;;;;;;;0.68;76.55;95761.19;5009413;28;20033;-70
2021/03/18 03:46:28;;;;;;;20.23;12.38;;;;;;;0.55;76.49;95753.53;5010317;28;20096;-69
2021/03/18 03:48:54;;;;;;;18.85;12.63;;;;;;;0.13;78.86;95761.41;5011070;28;20497;-69
2021/03/18 03:51:19;;;;;;;21.23;12.57;;;;;;;0.57;77.93;95762.78;5024575;28;20492;-69
2021/03/18 03:53:53;;;;;;;26.33;14.02;;;;;;;1.06;76.22;95759.94;5029813;28;20491;-67
2021/03/18 03:56:33;;;;;;;20.95;13.35;;;;;;;0.62;75.88;95762.91;5029722;28;20041;-68
2021/03/18 03:59:04;;;;;;;24.23;15.10;;;;;;;0.50;76.76;95754.22;5029671;28;20435;-68
2021/03/18 04:01:37;;;;;;;26.33;14.27;;;;;;;0.49;76.35;95763.09;5028372;28;20032;-68
2021/03/18 04:04:19;;;;;;;22.70;14.00;;;;;;;0.66;76.00;95765.84;5030540;28;20026;-68
2021/03/18 04:06:48;;;;;;;19.13;13.93;;;;;;;1.08;75.08;95757.91;5029655;28;20034;-68
2021/03/18 04:09:17;;;;;;;30.75;14.88;;;;;;;1.33;73.95;95761.06;5028382;28;20126;-68
2021/03/18 04:11:43;;;;;;;24.95;14.95;;;;;;;0.55;75.43;95764.81;5029470;28;20029;-68
2021/03/18 04:14:11;;;;;;;28.88;13.85;;;;;;;0.25;76.66;95767.47;5029758;28;20049;-68
2021/03/18 04:16:41;;;;;;;30.48;15.30;;;;;;;0.86;75.33;95762.91;5029518;28;20032;-69
2021/03/18 04:19:09;;;;;;;26.25;14.63;;;;;;;1.10;74.55;95763.72;5031466;28;20029;-68
2021/03/18 04:21:42;;;;;;;21.50;14.77;;;;;;;1.24;73.84;95772.94;5029009;28;20404;-70
2021/03/18 04:24:10;;;;;;;29.63;15.70;;;;;;;1.26;73.54;95753.31;5029436;28;20087;-68
2021/03/18 04:26:38;;;;;;;27.13;15.60;;;;;;;1.15;73.55;95748.91;5029363;28;20034;-68
2021/03/18 04:29:05;;;;;;;28.80;15.63;;;;;;;0.79;74.14;95757.78;5029106;28;20034;-69
2021/03/18 04:31:33;;;;;;;25.23;15.82;;;;;;;0.60;75.60;95767.53;5027734;28;20123;-68
2021/03/18 04:34:00;;;;;;;27.00;15.13;;;;;;;0.90;74.59;95772.69;5031087;28;20426;-69
2021/03/18 04:36:27;;;;;;;25.25;15.25;;;;;;;0.59;75.46;95778.25;5027743;28;20113;-69
2021/03/18 04:38:54;;;;;;;32.30;17.17;;;;;;;0.41;77.16;95768.63;5017221;28;20450;-68
2021/03/18 04:41:20;;;;;;;28.80;16.23;;;;;;;0.74;76.42;95768.94;5016204;28;20041;-69
2021/03/18 04:43:46;;;;;;;30.02;15.68;;;;;;;0.69;75.52;95773.25;5029074;28;20026;-70
2021/03/18 04:46:11;;;;;;;32.20;16.65;;;;;;;0.68;76.22;95759.38;5030939;28;20025;-70
2021/03/18 04:48:38;;;;;;;22.67;15.07;;;;;;;0.50;76.70;95780.38;5028451;28;20045;-69
2021/03/18 04:51:08;;;;;;;27.27;15.32;;;;;;;0.45;76.82;95773.19;5028870;28;20033;-69
2021/03/18 04:53:34;;;;;;;32.80;17.42;;;;;;;0.64;76.95;95779.16;5028681;28;20040;-69
2021/03/18 04:56:00;;;;;;;28.33;16.35;;;;;;;0.97;75.58;95773.41;5028612;28;20368;-68
2021/03/18 04:58:26;;;;;;;22.88;14.65;;;;;;;0.73;75.95;95774.41;5030443;28;20093;-68
2021/03/18 05:00:52;;;;;;;30.77;16.25;;;;;;;0.58;75.74;95763.56;5028831;28;20094;-69
2021/03/18 05:03:18;;;;;;;27.35;15.90;;;;;;;0.80;75.96;95777.69;5028486;28;20029;-68
2021/03/18 05:05:44;;;;;;;23.98;15.73;;;;;;;0.58;75.85;95772.22;5028803;28;20041;-69
2021/03/18 05:08:10;;;;;;;30.10;16.23;;;;;;;0.54;76.00;95767.66;5027250;28;20025;-69
2021/03/18 05:10:40;;;;;;;24.98;16.42;;;;;;;0.77;76.12;95780.78;5028752;28;20025;-68
2021/03/18 05:13:08;;;;;;;29.75;17.15;;;;;;;0.84;75.25;95763.13;5028955;28;20029;-67
2021/03/18 05:15:35;;;;;;;29.73;16.15;;;;;;;0.52;76.31;95773.91;5028657;28;20536;-67
2021/03/18 05:18:02;;;;;;;27.75;16.13;;;;;;;0.88;75.27;95768.72;5028367;28;20518;-69
2021/03/18 05:20:28;;;;;;;32.63;18.00;;;;;;;1.18;74.86;95763.38;5028495;28;20037;-69
2021/03/18 05:22:54;;;;;;;30.98;16.55;;;;;;;1.09;74.30;95749.81;5028338;28;20038;-68
2021/03/18 05:25:22;;;;;;;30.52;17.65;;;;;;;1.18;74.04;95763.38;5030609;28;20057;-68
2021/03/18 05:27:47;;;;;;;29.20;17.63;;;;;;;1.16;73.78;95760.97;5028284;28;20033;-68
2021/03/18 05:30:14;;;;;;;26.77;16.63;;;;;;;0.85;74.50;95769.16;5028504;28;20033;-67
2021/03/18 05:32:40;;;;;;;31.20;18.13;;;;;;;0.42;76.47;95775.50;5028375;28;20164;-68
2021/03/18 05:35:08;;;;;;;27.55;16.52;;;;;;;0.18;77.66;95764.94;5028553;28;20128;-68
2021/03/18 05:37:33;;;;;;;29.45;17.45;;;;;;;0.19;78.39;95770.97;5026865;28;20017;-67
2021/03/18 05:39:59;;;;;;;32.72;18.02;;;;;;;0.77;76.49;95762.47;5030327;28;20022;-68
2021/03/18 05:42:24;;;;;;;30.50;17.13;;;;;;;0.85;75.50;95780.44;5028020;28;20042;-68
2021/03/18 05:44:50;;;;;;;31.02;17.40;;;;;;;0.40;77.12;95760.00;5027039;28;20049;-69
2021/03/18 05:47:16;;;;;;;34.28;18.30;;;;;;;1.07;76.48;95766.78;5026783;28;20449;-70
2021/03/18 05:49:44;;;;;;;32.72;16.70;;;;;;;1.19;75.13;95770.19;5028431;28;20029;-68
2021/03/18 05:52:11;;;;;;;33.42;18.48;;;;;;;1.37;74.78;95777.13;5030099;28;20026;-69
2021/03/18 05:54:41;;;;;;;33.20;19.08;;;;;;;0.79;75.57;95781.34;5027189;28;20037;-70
2021/03/18 05:57:09;;;;;;;34.05;18.55;;;;;;;0.74;76.39;95781.22;5028211;28;20080;-68
2021/03/18 05:59:36;;;;;;;33.42;18.48;;;;;;;0.34;78.65;95775.81;5028257;28;20483;-68
2021/03/18 06:02:02;;;;;;;33.83;19.40;;;;;;;0.49;78.68;95787.44;5028220;28;20514;-68
2021/03/18 06:04:28;;;;;;;33.60;19.13;;;;;;;0.30;79.85;95779.88;5028731;28;20100;-69
2021/03/18 06:06:54;;;;;;;31.70;18.85;;;;;;;0.67;78.71;95788.41;5030890;28;20037;-70
2021/03/18 06:09:19;;;;;;;39.00;20.25;;;;;;;0.69;79.21;95783.72;5031603;28;20037;-69
2021/03/18 06:11:46;;;;;;;38.70;19.80;;;;;;;0.99;78.20;95781.81;5031446;28;20037;-69
2021/03/18 06:14:11;;;;;;;37.72;19.17;;;;;;;0.69;77.84;95770.63;5030313;28;20034;-69
2021/03/18 06:16:42;;;;;;;35.38;19.50;;;;;;;0.74;77.81;95768.13;5031763;28;20084;-69
2021/03/18 06:19:08;;;;;;;35.45;19.85;;;;;;;0.87;77.78;95782.81;5032456;28;20056;-68
2021/03/18 06:21:54;;;;;;;35.10;19.60;;;;;;;0.94;77.27;95783.53;5029816;28;20068;-71
2021/03/18 06:24:24;;;;;;;38.40;20.40;;;;;;;1.07;77.27;95782.50;5031898;28;20049;-75
2021/03/18 06:26:50;;;;;;;32.67;18.92;;;;;;;1.07;77.34;95783.28;5031855;28;20035;-75
2021/03/18 06:29:27;;;;;;;34.22;18.60;;;;;;;0.73;78.13;95779.66;5032526;28;20358;-68
2021/03/18 06:31:53;;;;;;;34.85;20.08;;;;;;;1.21;77.65;95766.31;5026939;28;20066;-69
2021/03/18 06:34:37;;;;;;;32.22;19.60;;;;;;;1.55;75.53;95784.84;5006203;28;20045;-68
2021/03/18 06:37:03;;;;;;;34.53;20.67;;;;;;;1.56;75.24;95779.38;5031428;28;20099;-70
2021/03/18 06:39:31;;;;;;;36.13;22.00;;;;;;;1.58;75.38;95789.63;5029966;28;20557;-68
2021/03/18 06:41:59;;;;;;;32.33;20.30;;;;;;;1.56;75.25;95779.38;5029331;28;20052;-70
2021/03/18 06:44:24;;;;;;;37.20;21.27;;;;;;;1.17;76.63;95777.47;5031218;28;20056;-70
2021/03/18 06:46:51;;;;;;;35.00;20.27;;;;;;;1.57;75.21;95788.03;5030904;28;20534;-69
2021/03/18 06:49:19;;;;;;;35.58;20.17;;;;;;;0.74;77.78;95782.03;5032732;28;20033;-69
2021/03/18 06:52:01;;;;;;;40.05;21.58;;;;;;;1.00;78.45;95786.03;5030557;28;20034;-68
2021/03/18 06:54:26;;;;;;;40.80;20.90;;;;;;;0.89;78.17;95781.59;5031001;28;20038;-69
2021/03/18 06:56:57;;;;;;;34.28;20.23;;;;;;;0.59;78.15;95759.94;5030563;28;20056;-69
2021/03/18 06:59:23;;;;;;;34.92;21.55;;;;;;;1.11;77.67;95775.78;5030819;28;20484;-68
2021/03/18 07:02:03;;;;;;;38.65;22.15;;;;;;;1.30;76.78;95782.50;5030775;28;20087;-67
2021/03/18 07:04:34;;;;;;;39.28;20.80;;;;;;;1.18;76.48;95779.91;5030976;28;20084;-63
2021/03/18 07:06:59;;;;;;;32.85;20.27;;;;;;;1.21;76.11;95763.69;5031285;28;20026;-70
2021/03/18 07:09:29;;;;;;;33.75;21.33;;;;;;;1.24;76.65;95778.97;5029493;28;20063;-69
2021/03/18 07:12:00;;;;;;;31.75;20.95;;;;;;;1.98;75.33;95779.13;5030358;28;20076;-66
2021/03/18 07:14:38;;;;;;;30.67;20.05;;;;;;;2.19;74.25;95780.31;5030640;28;20527;-69
2021/03/18 07:17:04;;;;;;;33.67;20.10;;;;;;;0.92;76.69;95765.44;5030968;28;20499;-68
2021/03/18 07:19:30;;;;;;;33.47;21.50;;;;;;;1.13;75.26;95742.31;5029316;28;20021;-67
2021/03/18 07:21:57;;;;;;;31.30;20.60;;;;;;;1.59;76.19;95782.56;5030359;28;20454;-67
2021/03/18 07:24:23;;;;;;;36.13;22.15;;;;;;;1.64;74.94;95787.91;5030541;28;20043;-69
2021/03/18 07:26:49;;;;;;;35.20;20.50;;;;;;;1.62;74.22;95775.03;5030228;28;20056;-66
2021/03/18 07:29:18;;;;;;;33.95;20.13;;;;;;;2.40;73.15;95764.91;5030289;28;20038;-70
2021/03/18 07:31:45;;;;;;;36.63;22.13;;;;;;;3.09;72.12;95768.91;5029977;28;20438;-67
2021/03/18 07:34:11;;;;;;;34.78;21.13;;;;;;;2.84;69.62;95776.41;5032179;28;20032;-74
2021/03/18 07:36:37;;;;;;;31.20;21.10;;;;;;;2.05;71.52;95779.81;5030159;28;20030;-67
2021/03/18 07:39:04;;;;;;;39.60;21.42;;;;;;;2.83;71.05;95780.09;5029766;28;20044;-67
2021/03/18 07:41:32;;;;;;;31.50;19.65;;;;;;;3.16;69.32;95787.13;5029429;28;20029;-66
2021/03/18 07:43:59;;;;;;;34.30;20.90;;;;;;;3.71;69.05;95777.63;5029746;28;20053;-67
2021/03/18 07:46:25;;;;;;;31.13;20.92;;;;;;;3.86;66.88;95772.53;5031748;28;20029;-68
2021/03/18 07:49:03;;;;;;;32.75;21.25;;;;;;;3.02;67.91;95789.31;5029539;28;20065;-70
2021/03/18 07:51:31;;;;;;;32.53;20.77;;;;;;;2.54;69.68;95771.47;5030090;28;20082;-68
2021/03/18 07:53:59;;;;;;;34.97;20.50;;;;;;;1.98;71.93;95789.63;5030890;28;20044;-68
2021/03/18 07:56:26;;;;;;;28.27;18.17;;;;;;;1.36;74.53;95786.81;5030798;28;20038;-66
2021/03/18 07:58:52;;;;;;;32.03;22.67;;;;;;;1.99;73.99;95791.22;5030705;28;20399;-67
2021/03/18 08:01:30;;;;;;;33.97;21.27;;;;;;;2.02;74.15;95784.72;5032585;28;20087;-66
2021/03/18 08:04:03;;;;;;;31.88;20.75;;;;;;;2.69;72.49;95790.09;5031182;28;20065;-66
2021/03/18 08:06:41;;;;;;;36.45;22.20;;;;;;;2.26;72.06;95788.84;5029269;28;20038;-66
2021/03/18 08:09:38;;;;;;;36.78;21.60;;;;;;;1.62;73.67;95797.84;5010836;28;20052;-72
2021/03/18 08:12:05;;;;;;;35.83;20.20;;;;;;;1.14;75.59;95772.72;5010427;28;20045;-66
2021/03/18 08:14:30;;;;;;;33.60;21.75;;;;;;;1.28;75.44;95768.84;5010272;28;20624;-67
2021/03/18 08:16:56;;;;;;;38.42;22.55;;;;;;;1.64;74.48;95801.00;5010436;28;20072;-65
2021/03/18 08:19:22;;;;;;;39.97;24.23;;;;;;;2.34;73.20;95777.16;5012341;28;20460;-67
2021/03/18 08:21:48;;;;;;;39.35;22.73;;;;;;;2.16;72.89;95793.13;5010171;28;20034;-67
2021/03/18 08:24:15;;;;;;;37.55;22.60;;;;;;;2.19;72.75;95792.63;5025082;28;20095;-66
2021/03/18 08:26:45;;;;;;;36.05;23.48;;;;;;;2.92;72.70;95797.06;5030464;28;20045;-67
2021/03/18 08:29:18;;;;;;;33.92;21.02;;;;;;;1.99;73.77;95793.84;5030171;28;20030;-67
2021/03/18 08:31:50;;;;;;;33.63;22.00;;;;;;;1.47;75.88;95783.38;5029958;28;20060;-66
2021/03/18 08:34:16;;;;;;;;;;;;;;;2.40;74.96;95786.72;5032622;28;20029;-67
2021/03/18 08:36:51;;;;;;;31.35;21.10;;;;;;;3.24;73.80;95793.84;5030026;28;19917;-67
2021/03/18 08:39:38;;;;;;;31.15;20.20;;;;;;;4.05;71.33;95776.47;5028828;28;20045;-67
2021/03/18 08:42:30;;;;;;;22.77;16.77;;;;;;;2.74;69.07;95781.50;5029987;28;20107;-67
2021/03/18 08:45:04;;;;;;;21.45;17.10;;;;;;;3.50;67.30;95785.25;5020879;28;20037;-67
2021/03/18 08:47:55;;;;;;;23.73;18.25;;;;;;;3.65;67.26;95784.66;5028463;28;20103;-67
2021/03/18 08:50:23;;;;;;;23.05;17.90;;;;;;;3.89;65.81;95780.75;5029499;28;20029;-66
2021/03/18 08:52:49;;;;;;;22.77;16.80;;;;;;;3.76;64.62;95777.69;5029573;28;20029;-67
2021/03/18 08:55:35;;;;;;;24.05;18.17;;;;;;;3.23;67.53;95784.38;5031840;28;20030;-67
2021/03/18 08:58:01;;;;;;;29.27;18.15;;;;;;;3.85;66.28;95784.91;5028857;28;20049;-68
2021/03/18 09:00:26;;;;;;;21.50;16.48;;;;;;;4.03;64.47;95769.84;5029876;28;20096;-67
2021/03/18 09:02:52;;;;;;;23.00;18.15;;;;;;;4.38;62.63;95754.41;5029397;28;20105;-67
2021/03/18 09:05:19;;;;;;;22.05;16.55;;;;;;;4.12;61.88;95782.31;5030011;28;20112;-68
2021/03/18 09:07:47;;;;;;;19.52;16.60;;;;;;;4.74;62.15;95782.91;5029629;28;20104;-67
2021/03/18 09:10:16;;;;;;;20.58;16.42;;;;;;;4.76;61.65;95776.34;5031738;28;20022;-68
2021/03/18 09:12:47;;;;;;;22.55;16.80;;;;;;;5.16;61.11;95783.75;5029424;28;20057;-67
2021/03/18 09:15:23;;;;;;;22.48;17.27;;;;;;;4.31;62.14;95774.09;5029671;28;20076;-66
2021/03/18 09:17:51;;;;;;;20.88;16.10;;;;;;;3.50;65.27;95780.00;5029636;28;20092;-66
2021/03/18 09:20:20;;;;;;;24.38;17.25;;;;;;;3.88;63.17;95771.25;5027807;28;20056;-67
2021/03/18 09:22:46;;;;;;;18.55;15.88;;;;;;;4.95;62.53;95776.75;5029450;28;20539;-67
2021/03/18 09:25:13;;;;;;;17.85;14.02;;;;;;;3.56;63.16;95779.03;5030450;28;20029;-67
2021/03/18 09:27:42;;;;;;;15.70;13.63;;;;;;;5.23;61.51;95746.63;5028323;28;20124;-66
2021/03/18 09:30:22;;;;;;;17.58;14.60;;;;;;;4.95;58.56;95774.09;5029876;28;20037;-68
2021/03/18 09:32:48;;;;;;;20.52;16.30;;;;;;;5.19;59.13;95759.50;5029447;28;20065;-68
2021/03/18 09:35:15;;;;;;;17.25;13.82;;;;;;;4.51;59.20;95768.22;5029545;28;20060;-68
2021/03/18 09:37:43;;;;;;;15.77;13.93;;;;;;;4.74;59.78;95765.25;5029655;28;20036;-68
2021/03/18 09:40:09;;;;;;;20.25;15.73;;;;;;;4.78;60.38;95762.91;5029911;28;20379;-66
2021/03/18 09:42:36;;;;;;;19.70;15.23;;;;;;;3.59;63.71;95770.66;5031153;28;20127;-66
2021/03/18 09:45:04;;;;;;;18.45;16.10;;;;;;;3.12;65.90;95772.88;5033527;28;20033;-67
2021/03/18 09:47:29;;;;;;;28.35;17.42;;;;;;;1.85;70.91;95771.56;5033196;28;20030;-67
2021/03/18 09:49:55;;;;;;;24.63;17.17;;;;;;;2.41;70.56;95769.16;5032931;28;20036;-68
2021/03/18 09:52:29;;;;;;;25.00;16.60;;;;;;;1.85;72.46;95768.16;5034990;28;20104;-66
2021/03/18 09:54:56;;;;;;;26.50;17.45;;;;;;;1.69;73.70;95764.41;5033772;28;20578;-67
2021/03/18 09:57:23;;;;;;;25.15;16.60;;;;;;;1.90;72.93;95774.28;5032932;28;20052;-67
2021/03/18 09:59:50;;;;;;;26.17;18.67;;;;;;;2.15;71.91;95762.63;5031581;28;20121;-66
2021/03/18 10:02:17;;;;;;;27.85;19.20;;;;;;;2.73;68.71;95746.56;5032567;28;20049;-68
2021/03/18 10:04:44;;;;;;;24.83;17.10;;;;;;;2.84;66.46;95740.44;5033007;28;20491;-68
2021/03/18 10:07:11;;;;;;;20.80;17.20;;;;;;;3.09;66.46;95734.75;5034788;28;20113;-68
2021/03/18 10:09:40;;;;;;;21.73;15.43;;;;;;;3.19;64.53;95744.63;5033000;28;20064;-67
2021/03/18 10:12:09;;;;;;;17.40;14.20;;;;;;;3.80;62.22;95732.22;5031407;28;20030;-67
2021/03/18 10:14:38;;;;;;;15.68;13.40;;;;;;;5.12;60.36;95743.13;5032997;28;20029;-66
2021/03/18 10:17:07;;;;;;;15.80;13.10;;;;;;;5.21;55.91;95731.03;5032528;28;20407;-67
2021/03/18 10:19:35;;;;;;;14.07;12.68;;;;;;;4.62;59.84;95735.66;5032554;28;20030;-66
2021/03/18 10:22:06;;;;;;;17.35;14.13;;;;;;;3.31;62.56;95723.47;5034068;28;20041;-68
2021/03/18 10:24:31;;;;;;;13.10;10.18;;;;;;;2.65;63.65;95723.31;5031454;28;20419;-67
2021/03/18 10:27:07;;;;;;;13.65;12.13;;;;;;;3.11;61.31;95735.28;5031124;28;20038;-68
2021/03/18 10:29:33;;;;;;;16.75;13.38;;;;;;;4.07;60.39;95723.56;5032588;28;20558;-68
2021/03/18 10:32:07;;;;;;;14.93;13.35;;;;;;;4.95;58.32;95721.38;5032449;28;20040;-67
2021/03/18 10:34:33;;;;;;;15.63;12.10;;;;;;;3.85;60.20;95711.22;5032299;28;20434;-68
2021/03/18 10:36:58;;;;;;;11.10;9.82;;;;;;;3.17;61.62;95723.00;5034207;28;20025;-67
2021/03/18 10:39:23;;;;;;;14.35;10.13;;;;;;;3.94;58.06;95705.50;5032429;28;20401;-67
2021/03/18 10:41:51;;;;;;;12.30;11.00;;;;;;;4.32;57.14;95715.09;5032093;28;20068;-66
2021/03/18 10:44:18;;;;;;;11.57;10.43;;;;;;;4.63;56.54;95660.81;5031083;28;20061;-66
2021/03/18 10:46:43;;;;;;;11.43;10.30;;;;;;;5.41;56.19;95703.97;5031824;28;20490;-67
2021/03/18 10:49:11;;;;;;;13.30;12.00;;;;;;;6.14;54.92;95685.50;5034033;28;20118;-76
2021/03/18 10:51:47;;;;;;;13.52;11.05;;;;;;;5.19;54.89;95696.22;5031502;28;20156;-67
2021/03/18 10:54:21;;;;;;;12.77;10.15;;;;;;;4.44;55.98;95692.03;5030339;28;20083;-67
2021/03/18 10:56:49;;;;;;;13.18;10.90;;;;;;;4.01;57.96;95690.31;5030448;28;20061;-67
2021/03/18 10:59:20;;;;;;;11.48;10.32;;;;;;;3.93;57.37;95688.91;5032042;28;20403;-66
2021/03/18 11:01:47;;;;;;;11.60;10.50;;;;;;;4.80;56.14;95692.28;5030491;28;20034;-69
2021/03/18 11:04:13;;;;;;;13.85;12.00;;;;;;;4.48;57.77;95690.47;5033936;28;20476;-68
2021/03/18 11:06:46;;;;;;;19.45;12.68;;;;;;;4.62;58.32;95688.22;5031968;28;20175;-69
2021/03/18 11:09:12;;;;;;;13.77;10.05;;;;;;;4.72;56.65;95685.66;5031878;28;20048;-66
2021/03/18 11:11:38;;;;;;;11.82;9.95;;;;;;;4.31;55.13;95689.81;5031576;28;20033;-66
2021/03/18 11:14:13;;;;;;;11.18;9.23;;;;;;;3.84;55.70;95680.69;5031711;28;20041;-65
2021/03/18 11:16:40;;;;;;;15.15;10.10;;;;;;;3.70;58.24;95691.84;5031924;28;20022;-67
2021/03/18 11:19:09;;;;;;;13.32;10.07;;;;;;;3.55;60.30;95688.00;5033608;28;20044;-65
2021/03/18 11:21:39;;;;;;;11.68;9.73;;;;;;;3.03;62.48;95693.66;5030976;28;20049;-67
2021/03/18 11:24:09;;;;;;;10.93;9.82;;;;;;;2.99;62.72;95686.50;5031672;28;20033;-66
2021/03/18 11:26:35;;;;;;;11.25;10.05;;;;;;;2.29;66.08;95680.75;5031510;28;20037;-66
2021/03/18 11:29:14;;;;;;;10.18;8.52;;;;;;;2.19;68.06;95680.56;5029834;28;20491;-67
2021/03/18 11:31:52;;;;;;;9.75;8.02;;;;;;;2.30;66.22;95686.78;5031152;28;20080;-66
2021/03/18 11:34:29;;;;;;;14.15;9.95;;;;;;;3.31;63.82;95676.13;5033309;28;20053;-66